createdAt,value
2023-03-22T00:04:09.487Z,98795.59
2023-03-22T00:09:11.368Z,98797.53
2023-03-22T00:14:13.300Z,98791.59
2023-03-22T00:19:15.451Z,98793.41
2023-03-22T00:24:17.342Z,98803.88
2023-03-22T00:29:19.239Z,98796.06
2023-03-22T00:34:21.105Z,98792.69
2023-03-22T00:39:23.028Z,98799.59
2023-03-22T00:44:24.985Z,98807.22
2023-03-22T00:49:27.131Z,98820.22
2023-03-22T00:54:29.067Z,98824.78
2023-03-22T00:59:31.122Z,98829.91
2023-03-22T01:04:33.381Z,98834.25
2023-03-22T01:09:35.253Z,98832.44
2023-03-22T01:14:37.208Z,98840.25
2023-03-22T01:19:39.283Z,98849.00
2023-03-22T01:24:41.145Z,98846.31
2023-03-22T01:29:43.033Z,98854.75
2023-03-22T01:34:45.930Z,98854.72
2023-03-22T01:39:48.118Z,98869.44
2023-03-22T01:45:14.704Z,98871.19
2023-03-22T01:50:16.825Z,98881.50
2023-03-22T01:55:18.990Z,98883.28
2023-03-22T02:00:20.949Z,98884.13
2023-03-22T02:05:22.942Z,98882.75
2023-03-22T02:10:25.952Z,98896.50
2023-03-22T02:15:36.188Z,98905.09
2023-03-22T02:20:51.431Z,98906.91
2023-03-22T02:26:23.840Z,98910.56
2023-03-22T02:31:37.726Z,98917.28
2023-03-22T02:37:02.793Z,98924.13
2023-03-22T02:42:22.829Z,98927.66
2023-03-22T02:47:30.593Z,98943.34
2023-03-22T02:52:40.927Z,98937.25
2023-03-22T02:57:42.737Z,98936.50
2023-03-22T03:02:47.721Z,98944.31
2023-03-22T03:07:52.877Z,98945.09
2023-03-22T03:12:54.715Z,98950.31
2023-03-22T03:18:40.946Z,98961.50
2023-03-22T03:23:45.444Z,98966.75
2023-03-22T03:28:52.823Z,98967.16
2023-03-22T03:33:59.903Z,98988.31
2023-03-22T03:39:01.738Z,98996.16
2023-03-22T03:44:03.744Z,99007.75
2023-03-22T03:49:05.644Z,99023.38
2023-03-22T03:54:07.549Z,99021.25
2023-03-22T03:59:09.368Z,99036.22
2023-03-22T04:04:11.332Z,99042.47
2023-03-22T04:09:13.275Z,99044.13
2023-03-22T04:14:15.165Z,99050.28
2023-03-22T04:19:17.184Z,99051.00
2023-03-22T04:24:20.191Z,99064.94
2023-03-22T04:29:22.150Z,99071.84
2023-03-22T04:34:24.014Z,99071.03
2023-03-22T04:39:26.356Z,99073.50
2023-03-22T04:44:28.274Z,99083.81
2023-03-22T04:49:30.076Z,99094.47
2023-03-22T04:54:31.968Z,99092.53
2023-03-22T04:59:34.005Z,99089.94
2023-03-22T05:04:35.850Z,99099.41
2023-03-22T05:09:37.797Z,99103.72
2023-03-22T05:14:39.633Z,99117.72
2023-03-22T05:19:41.542Z,99117.03
2023-03-22T05:24:43.447Z,99126.69
2023-03-22T05:29:45.320Z,99132.59
2023-03-22T05:34:47.252Z,99142.75
2023-03-22T05:39:49.162Z,99151.47
2023-03-22T05:44:51.001Z,99160.28
2023-03-22T05:49:54.120Z,99169.75
2023-03-22T05:54:56.004Z,99166.28
2023-03-22T05:59:57.818Z,99174.88
2023-03-22T06:04:59.642Z,99178.91
2023-03-22T06:10:01.482Z,99174.19
2023-03-22T06:15:03.921Z,99179.28
2023-03-22T06:20:06.336Z,99182.50
2023-03-22T06:25:08.747Z,99171.53
2023-03-22T06:30:10.737Z,99170.81
2023-03-22T06:35:12.693Z,99175.13
2023-03-22T06:40:14.815Z,99173.59
2023-03-22T06:45:16.886Z,99185.16
2023-03-22T06:50:18.717Z,99184.91
2023-03-22T06:55:20.552Z,99178.63
2023-03-22T07:00:22.656Z,99178.06
2023-03-22T07:05:24.508Z,99183.81
2023-03-22T07:10:26.427Z,99161.59
2023-03-22T07:15:28.395Z,99156.31
2023-03-22T07:20:30.326Z,99156.22
2023-03-22T07:25:32.259Z,99179.56
2023-03-22T07:30:34.204Z,99181.28
2023-03-22T07:35:36.620Z,99171.91
2023-03-22T07:40:38.537Z,99178.56
2023-03-22T07:45:40.497Z,99195.13
2023-03-22T07:50:42.403Z,99194.38
2023-03-22T07:55:44.314Z,99204.16
2023-03-22T08:00:46.218Z,99201.28
2023-03-22T08:05:48.069Z,99205.72
2023-03-22T08:10:50.273Z,99215.22
2023-03-22T08:15:52.318Z,99206.38
2023-03-22T08:20:57.951Z,99207.31
2023-03-22T08:25:59.853Z,99208.75
2023-03-22T08:31:01.788Z,99202.31
2023-03-22T08:36:14.255Z,99214.53
2023-03-22T08:41:16.294Z,99214.44
2023-03-22T08:46:18.301Z,99210.44
2023-03-22T08:51:21.283Z,99207.09
2023-03-22T08:56:23.194Z,99210.00
2023-03-22T09:01:25.325Z,99217.44
2023-03-22T09:06:27.472Z,99215.00
2023-03-22T09:11:29.342Z,99212.22
2023-03-22T09:16:31.224Z,99212.56
2023-03-22T09:21:33.196Z,99209.00
2023-03-22T09:26:35.104Z,99216.03
2023-03-22T09:31:37.036Z,99222.91
2023-03-22T09:36:38.963Z,99216.38
2023-03-22T09:41:50.037Z,99226.47
2023-03-22T09:46:53.439Z,99225.09
2023-03-22T09:51:55.447Z,99223.94
2023-03-22T09:57:02.613Z,99213.22
2023-03-22T10:02:08.665Z,99213.31
2023-03-22T10:07:32.134Z,99225.34
2023-03-22T10:12:52.095Z,99219.56
2023-03-22T10:17:55.002Z,99214.47
2023-03-22T10:22:56.893Z,99212.25
2023-03-22T10:27:59.056Z,99214.13
2023-03-22T10:33:02.815Z,99208.81
2023-03-22T10:38:05.444Z,99225.94
2023-03-22T10:43:19.345Z,99220.03
2023-03-22T10:48:53.398Z,99216.66
2023-03-22T10:53:55.309Z,99211.53
2023-03-22T10:58:57.133Z,99207.56
2023-03-22T11:04:10.419Z,99210.16
2023-03-22T11:09:15.712Z,99217.88
2023-03-22T11:14:22.708Z,99222.69
2023-03-22T11:19:26.100Z,99220.69
2023-03-22T11:24:28.705Z,99217.94
2023-03-22T11:29:30.353Z,99221.16
2023-03-22T11:34:32.260Z,99217.13
2023-03-22T11:39:34.206Z,99220.91
2023-03-22T11:44:36.089Z,99211.25
2023-03-22T11:49:50.089Z,99206.78
2023-03-22T11:54:52.041Z,99210.03
2023-03-22T12:00:08.429Z,99203.25
2023-03-22T12:05:22.220Z,99199.28
2023-03-22T12:10:30.412Z,99200.00
2023-03-22T12:15:34.895Z,99201.56
2023-03-22T12:20:56.572Z,99198.56
2023-03-22T12:26:40.160Z,99189.81
2023-03-22T12:32:03.516Z,99199.56
2023-03-22T12:37:06.723Z,99194.34
2023-03-22T12:42:18.824Z,99196.34
2023-03-22T12:47:26.421Z,99189.38
2023-03-22T12:52:48.874Z,99184.91
2023-03-22T12:57:50.775Z,99186.06
2023-03-22T13:03:10.227Z,99186.03
2023-03-22T13:08:12.660Z,99185.03
2023-03-22T13:13:23.625Z,99189.81
2023-03-22T13:18:38.131Z,99184.78
2023-03-22T13:24:10.104Z,99185.50
2023-03-22T13:29:23.899Z,99188.38
2023-03-22T13:34:40.722Z,99175.84
2023-03-22T13:39:42.538Z,99178.22
2023-03-22T13:44:44.524Z,99178.72
2023-03-22T13:49:50.729Z,99176.47
2023-03-22T13:54:52.482Z,99171.25
2023-03-22T14:00:11.940Z,99162.00
2023-03-22T14:05:21.619Z,99154.97
2023-03-22T14:10:28.197Z,99152.63
2023-03-22T14:15:32.979Z,99145.91
2023-03-22T14:20:35.953Z,99159.47
